Time;durP1;ratioP1;P1;durP2;ratioP2;P2;SDS_P1;SDS_P2;PMS_P1;PMS_P2;Temp;Humidity;BMP_temperature;BMP_pressure;BME280_temperature;BME280_humidity;BME280_pressure;Samples;Min_cycle;Max_cycle;Signal;HPM_P1;HPM_P2
2021/05/16 00:00:08;;;;;;;6.32;1.80;;;9.20;99.90;;;;;;5051567;28;20029;-75
2021/05/16 00:02:34;;;;;;;6.78;2.70;;;9.20;99.90;;;;;;5050818;28;20048;-74
2021/05/16 00:05:00;;;;;;;5.82;1.90;;;9.20;99.90;;;;;;5059440;28;20043;-75
2021/05/16 00:07:27;;;;;;;6.50;1.52;;;9.20;99.90;;;;;;5062074;28;20036;-74
2021/05/16 00:09:53;;;;;;;6.03;2.03;;;9.10;99.90;;;;;;5054782;28;20045;-74
2021/05/16 00:12:19;;;;;;;4.82;1.88;;;9.10;99.90;;;;;;5069971;28;20049;-75
2021/05/16 00:14:45;;;;;;;9.70;1.90;;;9.10;99.90;;;;;;5055166;28;20041;-74
2021/05/16 00:17:12;;;;;;;9.20;2.25;;;9.10;99.90;;;;;;5068361;28;20047;-74
2021/05/16 00:19:38;;;;;;;7.40;1.90;;;9.10;99.90;;;;;;5068030;28;20028;-74
2021/05/16 00:22:04;;;;;;;6.25;1.70;;;9.10;99.90;;;;;;5059646;28;20410;-74
2021/05/16 00:24:30;;;;;;;6.90;2.35;;;9.10;99.90;;;;;;5059981;28;20255;-75
2021/05/16 00:26:57;;;;;;;5.78;2.20;;;9.10;99.90;;;;;;5055034;28;20040;-75
2021/05/16 00:29:23;;;;;;;6.53;2.30;;;9.10;99.90;;;;;;5054708;28;20052;-75
2021/05/16 00:31:50;;;;;;;6.97;1.90;;;9.10;99.90;;;;;;5068959;28;20048;-75
2021/05/16 00:34:16;;;;;;;4.55;1.48;;;9.00;99.90;;;;;;5055142;28;20037;-74
2021/05/16 00:36:42;;;;;;;7.13;2.10;;;9.00;99.90;;;;;;5055211;28;20036;-75
2021/05/16 00:39:08;;;;;;;9.85;2.13;;;9.00;99.90;;;;;;5054850;28;20025;-75
2021/05/16 00:41:35;;;;;;;8.73;1.85;;;9.00;99.90;;;;;;5061865;28;20044;-74
2021/05/16 00:44:01;;;;;;;9.52;2.53;;;8.90;99.90;;;;;;5053632;28;20044;-74
2021/05/16 00:46:27;;;;;;;8.13;1.85;;;8.90;99.90;;;;;;5055653;28;20036;-74
2021/05/16 00:48:53;;;;;;;11.45;2.15;;;8.90;99.90;;;;;;5065458;28;20037;-74
2021/05/16 00:51:20;;;;;;;8.90;2.10;;;8.80;99.90;;;;;;5059187;28;20402;-74
2021/05/16 00:53:47;;;;;;;9.02;1.92;;;8.80;99.90;;;;;;5060673;28;20048;-75
2021/05/16 00:56:15;;;;;;;12.52;3.72;;;8.90;99.90;;;;;;5067966;28;20490;-75
2021/05/16 00:58:41;;;;;;;10.18;3.38;;;9.00;99.90;;;;;;5086310;28;20052;-74
2021/05/16 01:01:10;;;;;;;5.13;1.80;;;9.00;99.90;;;;;;5065794;28;20041;-75
2021/05/16 01:03:39;;;;;;;12.02;2.08;;;9.00;99.90;;;;;;5060833;28;20045;-75
2021/05/16 01:06:05;;;;;;;6.10;1.98;;;9.00;99.90;;;;;;5069024;28;20025;-75
2021/05/16 01:08:37;;;;;;;6.82;2.08;;;9.10;99.90;;;;;;5061761;28;20024;-75
2021/05/16 01:11:04;;;;;;;5.75;2.08;;;9.10;99.90;;;;;;5063708;28;20100;-74
2021/05/16 01:13:30;;;;;;;8.43;2.08;;;9.10;99.90;;;;;;5053389;28;20497;-76
2021/05/16 01:15:56;;;;;;;2.88;1.63;;;9.10;99.90;;;;;;5053693;28;20033;-75
2021/05/16 01:18:22;;;;;;;4.85;1.52;;;9.10;99.90;;;;;;5053076;28;20039;-75
2021/05/16 01:20:51;;;;;;;9.30;1.98;;;9.10;99.90;;;;;;5074616;28;20047;-75
2021/05/16 01:23:30;;;;;;;6.97;2.30;;;9.10;99.90;;;;;;5053832;28;20048;-75
2021/05/16 01:26:01;;;;;;;6.30;2.20;;;9.10;99.90;;;;;;5052313;28;20060;-75
2021/05/16 01:28:28;;;;;;;5.00;1.80;;;9.10;99.90;;;;;;5054037;28;20478;-75
2021/05/16 01:30:54;;;;;;;4.22;1.95;;;9.10;99.90;;;;;;5053752;28;20025;-74
2021/05/16 01:33:21;;;;;;;6.57;1.58;;;9.10;99.90;;;;;;5064640;28;20059;-75
2021/05/16 01:35:51;;;;;;;5.60;1.75;;;9.10;99.90;;;;;;5053803;28;20381;-75
2021/05/16 01:38:17;;;;;;;7.68;2.00;;;9.10;99.90;;;;;;5053452;28;20378;-76
2021/05/16 01:40:44;;;;;;;7.05;1.52;;;9.10;99.90;;;;;;5053528;28;20045;-74
2021/05/16 01:43:23;;;;;;;5.95;1.65;;;9.10;99.90;;;;;;5062274;28;20044;-74
2021/05/16 01:45:50;;;;;;;6.65;1.90;;;9.20;99.90;;;;;;5053662;28;20060;-74
2021/05/16 01:48:16;;;;;;;5.75;1.50;;;9.20;99.90;;;;;;5052867;28;20045;-74
2021/05/16 01:50:42;;;;;;;5.55;1.52;;;9.20;99.90;;;;;;5067280;28;20037;-74
2021/05/16 01:53:10;;;;;;;6.72;1.48;;;9.20;99.90;;;;;;5052788;28;20052;-73
2021/05/16 01:55:37;;;;;;;5.57;1.92;;;9.20;99.90;;;;;;5052901;28;20021;-74
2021/05/16 01:58:04;;;;;;;3.45;1.27;;;9.20;99.90;;;;;;5053881;28;20044;-73
2021/05/16 02:00:34;;;;;;;5.45;1.23;;;9.30;99.90;;;;;;5053079;28;20036;-75
2021/05/16 02:03:06;;;;;;;6.15;1.80;;;9.30;99.90;;;;;;5063484;28;20041;-75
2021/05/16 02:05:40;;;;;;;2.38;1.13;;;9.30;99.90;;;;;;5052875;28;20493;-74
2021/05/16 02:08:07;;;;;;;4.20;0.95;;;9.30;99.90;;;;;;5051854;28;20041;-75
2021/05/16 02:10:36;;;;;;;2.22;0.85;;;9.30;99.90;;;;;;5060545;28;20470;-75
2021/05/16 02:13:08;;;;;;;2.92;1.08;;;9.40;99.90;;;;;;5061660;28;20498;-75
2021/05/16 02:15:36;;;;;;;4.35;1.50;;;9.40;99.90;;;;;;5068038;28;20048;-74
2021/05/16 02:18:05;;;;;;;3.58;1.17;;;9.50;99.90;;;;;;5050950;28;20478;-74
2021/05/16 02:20:32;;;;;;;3.10;0.90;;;9.50;99.90;;;;;;5054302;28;20481;-75
2021/05/16 02:22:59;;;;;;;6.03;1.13;;;9.50;99.90;;;;;;5066486;28;20052;-75
2021/05/16 02:25:27;;;;;;;4.13;1.00;;;9.50;99.90;;;;;;5051325;28;20049;-74
2021/05/16 02:27:53;;;;;;;4.03;0.90;;;9.60;99.90;;;;;;5052492;28;20048;-74
2021/05/16 02:30:23;;;;;;;4.20;1.33;;;9.50;99.90;;;;;;5066557;28;20045;-74
2021/05/16 02:32:50;;;;;;;3.42;1.02;;;9.60;99.90;;;;;;5066887;28;20049;-74
2021/05/16 02:35:17;;;;;;;3.97;1.15;;;9.60;99.90;;;;;;5052043;28;20041;-75
2021/05/16 02:37:55;;;;;;;3.13;1.17;;;9.60;99.90;;;;;;5052481;28;20036;-74
2021/05/16 02:40:21;;;;;;;3.72;1.20;;;9.60;99.90;;;;;;5051778;28;20032;-74
2021/05/16 02:42:48;;;;;;;4.32;1.33;;;9.60;99.90;;;;;;5051121;28;20052;-74
2021/05/16 02:45:16;;;;;;;2.90;1.42;;;9.60;99.90;;;;;;5050684;28;20059;-74
2021/05/16 02:47:44;;;;;;;5.88;1.30;;;9.60;99.90;;;;;;5069164;28;20044;-74
2021/05/16 02:50:15;;;;;;;4.95;1.58;;;9.60;99.90;;;;;;5050595;28;20052;-74
2021/05/16 02:52:56;;;;;;;4.40;2.30;;;9.50;99.90;;;;;;5061673;28;20039;-74
2021/05/16 02:55:24;;;;;;;3.95;1.50;;;9.50;99.90;;;;;;5065870;28;20474;-74
2021/05/16 02:57:51;;;;;;;7.35;2.25;;;9.50;99.90;;;;;;5065105;28;20041;-74
2021/05/16 03:00:20;;;;;;;5.10;1.73;;;9.50;99.90;;;;;;5066350;28;20044;-74
2021/05/16 03:02:46;;;;;;;3.85;1.60;;;9.60;99.90;;;;;;5052355;28;20041;-74
2021/05/16 03:05:14;;;;;;;2.03;1.45;;;9.60;99.90;;;;;;5052398;28;20390;-73
2021/05/16 03:07:42;;;;;;;4.93;1.95;;;9.60;99.90;;;;;;5065006;28;20028;-74
2021/05/16 03:10:10;;;;;;;3.72;2.00;;;9.60;99.90;;;;;;5051148;28;20045;-74
2021/05/16 03:12:36;;;;;;;6.35;1.90;;;9.60;99.90;;;;;;5051471;28;20033;-74
2021/05/16 03:15:03;;;;;;;4.03;2.08;;;9.60;99.90;;;;;;5050498;28;20044;-74
2021/05/16 03:17:30;;;;;;;4.20;2.00;;;9.60;99.90;;;;;;5053438;28;20045;-74
2021/05/16 03:19:56;;;;;;;6.78;2.63;;;9.60;99.90;;;;;;5050186;28;20041;-74
2021/05/16 03:22:23;;;;;;;6.15;2.47;;;9.60;99.90;;;;;;5051496;28;20040;-74
2021/05/16 03:24:49;;;;;;;6.55;2.35;;;9.60;99.90;;;;;;5052918;28;20045;-74
2021/05/16 03:27:16;;;;;;;6.03;2.20;;;9.60;99.90;;;;;;5069235;28;20043;-74
2021/05/16 03:29:42;;;;;;;5.28;2.50;;;9.60;99.90;;;;;;5065741;28;20107;-74
2021/05/16 03:32:08;;;;;;;4.32;2.38;;;9.60;99.90;;;;;;5051117;28;20044;-74
2021/05/16 03:34:35;;;;;;;5.90;2.65;;;9.60;99.90;;;;;;5059384;28;20040;-74
2021/05/16 03:37:03;;;;;;;8.18;2.70;;;9.60;99.90;;;;;;5056176;28;20033;-75
2021/05/16 03:39:29;;;;;;;6.43;2.97;;;9.50;99.90;;;;;;5071545;28;20039;-74
2021/05/16 03:41:56;;;;;;;7.03;2.83;;;9.50;99.90;;;;;;5056081;28;20053;-74
2021/05/16 03:44:23;;;;;;;8.60;3.38;;;9.50;99.90;;;;;;5064336;28;20052;-74
2021/05/16 03:46:50;;;;;;;6.78;3.55;;;9.50;99.90;;;;;;5075621;28;20047;-75
2021/05/16 03:49:16;;;;;;;6.45;3.42;;;9.50;99.90;;;;;;5057709;28;20040;-74
2021/05/16 03:51:46;;;;;;;5.82;3.30;;;9.50;99.90;;;;;;5062049;28;20029;-74
2021/05/16 03:54:15;;;;;;;6.40;3.63;;;9.50;99.90;;;;;;5064666;28;20029;-74
2021/05/16 03:56:42;;;;;;;8.98;3.92;;;9.50;99.90;;;;;;5056047;28;20489;-74
2021/05/16 03:59:08;;;;;;;5.57;3.63;;;9.50;99.90;;;;;;5064740;28;20052;-74
2021/05/16 04:01:34;;;;;;;8.13;4.55;;;9.40;99.90;;;;;;5054865;28;20029;-74
2021/05/16 04:04:00;;;;;;;7.35;3.75;;;9.40;99.90;;;;;;5054947;28;20049;-74
2021/05/16 04:06:27;;;;;;;6.10;3.90;;;9.40;99.90;;;;;;5059906;28;20028;-74
2021/05/16 04:08:53;;;;;;;7.40;3.40;;;9.40;99.90;;;;;;5060111;28;20040;-74
2021/05/16 04:11:19;;;;;;;7.95;4.10;;;9.40;99.90;;;;;;5054778;28;20032;-74
2021/05/16 04:13:46;;;;;;;7.53;4.55;;;9.50;99.90;;;;;;5068280;28;20508;-74
2021/05/16 04:16:12;;;;;;;10.85;4.82;;;9.50;99.90;;;;;;5071533;28;20036;-74
2021/05/16 04:18:38;;;;;;;8.40;5.07;;;9.50;99.90;;;;;;5063950;28;20033;-75
2021/05/16 04:21:06;;;;;;;8.48;4.18;;;9.50;99.90;;;;;;5054190;28;20049;-74
2021/05/16 04:23:34;;;;;;;7.20;4.30;;;9.50;99.90;;;;;;5054488;28;20048;-75
2021/05/16 04:26:01;;;;;;;8.60;4.50;;;9.50;99.90;;;;;;5060214;28;20389;-75
2021/05/16 04:28:27;;;;;;;7.75;4.38;;;9.50;99.90;;;;;;5059749;28;20025;-75
2021/05/16 04:30:54;;;;;;;11.82;4.95;;;9.60;99.90;;;;;;5054972;28;20045;-75
2021/05/16 04:33:21;;;;;;;9.43;5.15;;;9.60;99.90;;;;;;5054124;28;20052;-75
2021/05/16 04:35:47;;;;;;;8.82;4.80;;;9.70;99.90;;;;;;5054588;28;20045;-75
2021/05/16 04:38:14;;;;;;;9.43;4.60;;;9.70;99.90;;;;;;5054988;28;20422;-75
2021/05/16 04:40:40;;;;;;;8.63;4.28;;;9.70;99.90;;;;;;5054068;28;20036;-75
2021/05/16 04:43:08;;;;;;;7.65;4.07;;;9.70;99.90;;;;;;5054585;28;20112;-75
2021/05/16 04:45:35;;;;;;;12.32;4.93;;;9.80;99.90;;;;;;5054243;28;20509;-75
2021/05/16 04:48:01;;;;;;;8.77;4.95;;;9.80;99.90;;;;;;5063033;28;20031;-75
2021/05/16 04:50:27;;;;;;;8.55;4.47;;;9.80;99.90;;;;;;5066690;28;20025;-75
2021/05/16 04:52:53;;;;;;;6.57;3.88;;;9.80;99.90;;;;;;5054069;28;20040;-74
2021/05/16 04:55:19;;;;;;;7.55;3.63;;;9.80;99.90;;;;;;5069345;28;20037;-75
2021/05/16 04:57:46;;;;;;;9.50;3.75;;;9.90;99.90;;;;;;5054639;28;20048;-75
2021/05/16 05:00:13;;;;;;;10.82;4.60;;;9.90;99.90;;;;;;5057753;28;20028;-75
2021/05/16 05:02:41;;;;;;;9.43;4.45;;;9.80;99.90;;;;;;5069438;28;20044;-75
2021/05/16 05:05:09;;;;;;;10.25;4.28;;;9.80;99.90;;;;;;5054224;28;20389;-74
2021/05/16 05:07:35;;;;;;;11.23;4.35;;;9.80;99.90;;;;;;5053807;28;20477;-72
2021/05/16 05:10:01;;;;;;;8.35;4.75;;;9.80;99.90;;;;;;5053943;28;20043;-73
2021/05/16 05:12:28;;;;;;;7.18;4.72;;;9.80;99.90;;;;;;5053408;28;20040;-73
2021/05/16 05:14:54;;;;;;;9.32;4.43;;;9.80;99.90;;;;;;5053381;28;20050;-73
2021/05/16 05:17:20;;;;;;;7.72;4.65;;;9.80;99.90;;;;;;5053571;28;20025;-74
2021/05/16 05:19:46;;;;;;;14.85;5.68;;;9.80;99.90;;;;;;5058676;28;20025;-73
2021/05/16 05:22:12;;;;;;;8.77;5.40;;;9.70;99.90;;;;;;5064214;28;20032;-73
2021/05/16 05:24:39;;;;;;;9.23;5.40;;;9.70;99.90;;;;;;5053383;28;20470;-74
2021/05/16 05:27:05;;;;;;;7.95;5.03;;;9.80;99.90;;;;;;5062346;28;20029;-73
2021/05/16 05:29:31;;;;;;;10.05;5.13;;;9.80;99.90;;;;;;5053447;28;20021;-73
2021/05/16 05:31:58;;;;;;;10.25;5.20;;;9.80;99.90;;;;;;5053497;28;20025;-73
2021/05/16 05:34:27;;;;;;;12.10;5.35;;;9.90;99.90;;;;;;5053854;28;20045;-74
2021/05/16 05:36:54;;;;;;;9.02;5.03;;;9.90;99.90;;;;;;5056017;28;20029;-74
2021/05/16 05:39:20;;;;;;;9.82;4.97;;;10.00;99.90;;;;;;5057574;28;20036;-73
2021/05/16 05:41:47;;;;;;;11.05;4.32;;;10.10;99.90;;;;;;5063097;28;20043;-74
2021/05/16 05:44:14;;;;;;;9.95;4.38;;;10.20;99.90;;;;;;5055470;28;20045;-74
2021/05/16 05:46:41;;;;;;;9.77;4.28;;;10.20;99.90;;;;;;5052643;28;20044;-73
2021/05/16 05:49:08;;;;;;;6.75;3.55;;;10.20;99.90;;;;;;5068624;28;20037;-73
2021/05/16 05:51:34;;;;;;;7.18;4.22;;;10.20;99.90;;;;;;5070556;28;20045;-73
2021/05/16 05:54:00;;;;;;;6.70;3.55;;;10.20;99.90;;;;;;5056733;28;20055;-73
2021/05/16 05:56:26;;;;;;;7.72;3.85;;;10.20;99.90;;;;;;5052718;28;20025;-73
2021/05/16 05:58:53;;;;;;;5.60;3.15;;;10.20;99.90;;;;;;5053145;28;20481;-73
2021/05/16 06:01:19;;;;;;;6.03;4.18;;;10.20;99.90;;;;;;5063671;28;20385;-73
2021/05/16 06:03:47;;;;;;;9.15;3.75;;;10.20;99.90;;;;;;5060343;28;20481;-73
2021/05/16 06:06:13;;;;;;;5.93;3.63;;;10.20;99.90;;;;;;5052679;28;20029;-73
2021/05/16 06:08:39;;;;;;;6.10;3.78;;;10.20;99.90;;;;;;5052650;28;20033;-73
2021/05/16 06:11:06;;;;;;;5.53;3.45;;;10.20;99.90;;;;;;5052928;28;20060;-73
2021/05/16 06:13:32;;;;;;;5.00;3.10;;;10.20;99.90;;;;;;5052985;28;20045;-73
2021/05/16 06:15:58;;;;;;;5.65;3.30;;;10.20;99.90;;;;;;5060748;28;20048;-73
2021/05/16 06:18:24;;;;;;;6.10;3.25;;;10.20;99.90;;;;;;5054196;28;20032;-73
2021/05/16 06:20:51;;;;;;;6.05;3.40;;;10.30;99.90;;;;;;5052732;28;20044;-73
2021/05/16 06:23:18;;;;;;;8.27;3.25;;;10.20;99.90;;;;;;5052358;28;20040;-74
2021/05/16 06:25:48;;;;;;;7.18;3.70;;;10.30;99.90;;;;;;5057385;28;20029;-73
2021/05/16 06:28:15;;;;;;;6.60;3.10;;;10.30;99.90;;;;;;5063368;28;20041;-73
2021/05/16 06:30:41;;;;;;;5.60;3.50;;;10.40;99.90;;;;;;5051952;28;20048;-76
2021/05/16 06:33:08;;;;;;;7.22;3.33;;;10.40;99.90;;;;;;5076052;28;20044;-76
2021/05/16 06:35:34;;;;;;;6.15;3.40;;;10.60;99.90;;;;;;5061397;28;20033;-76
2021/05/16 06:38:00;;;;;;;5.38;3.20;;;10.60;99.90;;;;;;5052412;28;20048;-76
2021/05/16 06:40:27;;;;;;;4.57;3.22;;;10.80;99.90;;;;;;5051961;28;20025;-76
2021/05/16 06:42:54;;;;;;;7.32;2.85;;;10.80;99.90;;;;;;5052224;28;20045;-76
2021/05/16 06:45:20;;;;;;;4.97;3.00;;;10.80;99.90;;;;;;5060951;28;20044;-76
2021/05/16 06:47:46;;;;;;;5.57;2.92;;;10.80;99.90;;;;;;5052358;28;20378;-76
2021/05/16 06:50:14;;;;;;;9.00;3.08;;;10.70;99.90;;;;;;5052180;28;20029;-76
2021/05/16 06:52:40;;;;;;;5.53;2.63;;;10.60;99.90;;;;;;5051351;28;20040;-76
2021/05/16 06:55:08;;;;;;;5.43;3.30;;;10.70;99.90;;;;;;5052112;28;20036;-76
2021/05/16 06:57:35;;;;;;;4.07;2.55;;;10.70;99.90;;;;;;5066246;28;20033;-76
2021/05/16 07:00:01;;;;;;;9.30;2.70;;;10.70;99.90;;;;;;5052116;28;20037;-76
2021/05/16 07:02:27;;;;;;;7.07;3.00;;;10.70;99.90;;;;;;5051369;28;20508;-76
2021/05/16 07:04:54;;;;;;;4.38;2.40;;;10.80;99.90;;;;;;5052162;28;20040;-77
2021/05/16 07:07:20;;;;;;;5.95;2.90;;;10.90;99.90;;;;;;5051720;28;20049;-77
2021/05/16 07:09:47;;;;;;;5.07;2.58;;;11.00;99.90;;;;;;5051855;28;20497;-76
2021/05/16 07:12:13;;;;;;;6.13;2.88;;;11.10;99.90;;;;;;5051705;28;20459;-76
2021/05/16 07:14:40;;;;;;;4.22;1.85;;;11.20;99.90;;;;;;5050281;28;20041;-76
2021/05/16 07:17:06;;;;;;;7.13;2.45;;;11.40;99.90;;;;;;5051435;28;20300;-76
2021/05/16 07:19:33;;;;;;;4.82;1.75;;;11.50;99.90;;;;;;5066534;28;20033;-77
2021/05/16 07:21:59;;;;;;;6.80;1.85;;;11.80;99.90;;;;;;5051300;28;20050;-76
2021/05/16 07:24:26;;;;;;;5.63;1.80;;;12.00;99.90;;;;;;5066082;28;20041;-75
2021/05/16 07:26:52;;;;;;;4.70;1.45;;;12.70;99.90;;;;;;5050622;28;20040;-75
2021/05/16 07:29:18;;;;;;;7.13;1.65;;;14.00;99.90;;;;;;5056952;28;20032;-74
2021/05/16 07:31:44;;;;;;;3.63;1.20;;;15.80;99.90;;;;;;5064334;28;20139;-75
2021/05/16 07:34:10;;;;;;;2.63;0.80;;;16.10;99.90;;;;;;5060421;28;20450;-75
2021/05/16 07:36:37;;;;;;;3.28;1.05;;;16.20;99.90;;;;;;5052119;28;20036;-75
2021/05/16 07:39:04;;;;;;;5.80;1.55;;;16.30;98.70;;;;;;5057289;28;20029;-75
2021/05/16 07:41:30;;;;;;;2.88;0.70;;;15.50;99.40;;;;;;5051978;28;20482;-76
2021/05/16 07:43:56;;;;;;;3.28;1.40;;;14.30;99.90;;;;;;5063477;28;20049;-75
2021/05/16 07:46:22;;;;;;;3.60;1.13;;;14.10;99.90;;;;;;5058469;28;20048;-76
2021/05/16 07:48:49;;;;;;;4.07;0.90;;;14.30;99.90;;;;;;5066693;28;20029;-76
2021/05/16 07:51:15;;;;;;;4.38;1.10;;;15.30;99.90;;;;;;5068439;28;20029;-75
2021/05/16 07:53:41;;;;;;;4.72;1.15;;;16.40;95.30;;;;;;5056307;28;20029;-76
2021/05/16 07:56:10;;;;;;;2.60;0.70;;;17.10;93.90;;;;;;5065788;28;20351;-77
2021/05/16 07:58:36;;;;;;;3.90;0.68;;;17.50;92.80;;;;;;5055921;28;20494;-77
2021/05/16 08:01:03;;;;;;;5.25;1.10;;;18.10;90.60;;;;;;5051348;28;20037;-78
2021/05/16 08:03:29;;;;;;;2.72;0.80;;;17.10;90.30;;;;;;5067203;28;20040;-78
2021/05/16 08:05:57;;;;;;;4.57;1.00;;;16.00;92.50;;;;;;5056382;28;20044;-77
2021/05/16 08:08:24;;;;;;;2.80;1.13;;;15.20;94.40;;;;;;5060321;28;20037;-77
2021/05/16 08:10:51;;;;;;;4.07;0.98;;;14.50;97.50;;;;;;5059091;28;20056;-76
2021/05/16 08:13:17;;;;;;;4.47;1.20;;;14.20;99.90;;;;;;5051533;28;20033;-76
2021/05/16 08:15:43;;;;;;;3.95;1.08;;;14.00;99.90;;;;;;5051169;28;20033;-76
2021/05/16 08:18:10;;;;;;;4.90;1.13;;;13.80;99.90;;;;;;5057192;28;20039;-76
2021/05/16 08:20:37;;;;;;;5.53;1.88;;;13.60;99.90;;;;;;5058660;28;20041;-76
2021/05/16 08:23:04;;;;;;;6.40;1.48;;;13.60;99.90;;;;;;5064339;28;20044;-77
2021/05/16 08:25:35;;;;;;;5.20;1.55;;;13.70;99.90;;;;;;5051327;28;20055;-77
2021/05/16 08:28:02;;;;;;;6.18;1.40;;;13.70;99.90;;;;;;5055020;28;20028;-77
2021/05/16 08:30:29;;;;;;;6.35;1.45;;;13.60;99.90;;;;;;5054264;28;20038;-77
2021/05/16 08:32:55;;;;;;;7.57;1.70;;;13.60;99.90;;;;;;5054614;28;20049;-77
2021/05/16 08:35:22;;;;;;;5.93;1.65;;;13.50;99.90;;;;;;5064062;28;20481;-77
2021/05/16 08:37:48;;;;;;;10.50;2.97;;;13.70;99.90;;;;;;5073362;28;20037;-77
2021/05/16 08:40:15;;;;;;;7.18;2.05;;;14.00;99.90;;;;;;5057904;28;20037;-77
2021/05/16 08:42:42;;;;;;;5.57;1.90;;;14.00;99.90;;;;;;5053575;28;20041;-76
2021/05/16 08:45:12;;;;;;;5.65;1.70;;;13.80;99.60;;;;;;5060902;28;20049;-78
2021/05/16 08:47:40;;;;;;;7.38;1.83;;;14.00;99.20;;;;;;5059367;28;20029;-78
2021/05/16 08:50:09;;;;;;;3.28;0.73;;;14.60;96.30;;;;;;5054503;28;20065;-77
2021/05/16 08:52:36;;;;;;;6.57;1.10;;;14.60;96.30;;;;;;5054857;28;20028;-77
2021/05/16 08:55:04;;;;;;;5.50;1.23;;;14.30;97.60;;;;;;5053515;28;20033;-77
2021/05/16 08:57:30;;;;;;;6.13;1.23;;;14.10;96.90;;;;;;5054113;28;20033;-78
2021/05/16 09:00:09;;;;;;;7.15;1.48;;;14.20;97.20;;;;;;5063269;28;20040;-77
2021/05/16 09:02:59;;;;;;;8.25;1.60;;;14.70;94.90;;;;;;5069357;28;20496;-77
2021/05/16 09:05:27;;;;;;;7.68;1.38;;;15.40;92.70;;;;;;5058043;28;20041;-77
2021/05/16 09:08:09;;;;;;;6.10;1.10;;;16.40;90.60;;;;;;5053833;28;20033;-77
2021/05/16 09:10:36;;;;;;;6.90;1.60;;;16.80;85.10;;;;;;5053740;28;20036;-77
2021/05/16 09:13:10;;;;;;;6.43;1.83;;;15.90;87.40;;;;;;5052799;28;20045;-77
2021/05/16 09:15:36;;;;;;;6.88;2.28;;;15.60;88.70;;;;;;5068478;28;20040;-77
2021/05/16 09:18:02;;;;;;;7.10;2.08;;;15.40;89.30;;;;;;5054023;28;20033;-78
2021/05/16 09:20:29;;;;;;;6.53;2.10;;;15.20;91.20;;;;;;5053987;28;20351;-76
2021/05/16 09:22:55;;;;;;;8.27;1.92;;;14.50;92.30;;;;;;5064815;28;20024;-76
2021/05/16 09:25:30;;;;;;;5.32;1.63;;;13.70;97.00;;;;;;5053996;28;20049;-75
2021/05/16 09:28:12;;;;;;;8.18;1.67;;;13.50;99.90;;;;;;5053802;28;20029;-76
2021/05/16 09:30:40;;;;;;;5.30;1.45;;;14.30;99.90;;;;;;5053272;28;20044;-76
2021/05/16 09:33:14;;;;;;;8.00;2.30;;;15.50;95.70;;;;;;5053575;28;20072;-78
2021/05/16 09:35:47;;;;;;;9.60;2.00;;;16.10;95.60;;;;;;5053342;28;20032;-78
2021/05/16 09:38:16;;;;;;;4.28;1.27;;;16.70;92.30;;;;;;5052908;28;20359;-78
2021/05/16 09:40:48;;;;;;;7.97;1.70;;;17.20;89.50;;;;;;5066731;28;20354;-77
2021/05/16 09:43:24;;;;;;;5.00;1.52;;;18.10;86.30;;;;;;5054870;28;20056;-77
2021/05/16 09:45:50;;;;;;;6.03;1.48;;;17.10;82.10;;;;;;5056294;28;20036;-77
2021/05/16 09:48:30;;;;;;;5.22;1.50;;;16.50;81.10;;;;;;5072122;28;20032;-76
2021/05/16 09:51:09;;;;;;;7.93;1.77;;;15.80;84.50;;;;;;5062572;28;20363;-76
2021/05/16 09:54:06;;;;;;;7.50;2.40;;;15.70;84.10;;;;;;5052434;28;20386;-77
2021/05/16 09:56:36;;;;;;;8.48;2.08;;;15.20;86.60;;;;;;5052548;28;20052;-76
2021/05/16 09:59:08;;;;;;;7.45;2.03;;;15.30;83.60;;;;;;5065019;28;20044;-75
2021/05/16 10:01:36;;;;;;;11.48;2.58;;;15.00;91.00;;;;;;5052894;28;20029;-77
2021/05/16 10:04:04;;;;;;;9.65;2.10;;;13.60;98.70;;;;;;5055351;28;20032;-78
2021/05/16 10:06:31;;;;;;;7.57;2.78;;;12.70;99.90;;;;;;5067832;28;20037;-79
2021/05/16 10:08:58;;;;;;;12.40;3.40;;;12.30;99.90;;;;;;5057853;28;20055;-79
2021/05/16 10:11:27;;;;;;;13.25;2.60;;;12.20;99.90;;;;;;5066884;28;20433;-79
2021/05/16 10:13:58;;;;;;;6.28;2.65;;;12.20;99.90;;;;;;5053630;28;20103;-80
2021/05/16 10:16:26;;;;;;;10.82;2.90;;;12.40;99.90;;;;;;5064663;28;20036;-83
2021/05/16 10:18:54;;;;;;;14.15;2.53;;;13.10;99.90;;;;;;5052774;28;20032;-81
2021/05/16 10:21:25;;;;;;;9.73;2.58;;;14.10;99.90;;;;;;5052863;28;20028;-87
2021/05/16 10:24:13;;;;;;;8.60;2.05;;;14.30;99.90;;;;;;5052436;28;20049;-80
2021/05/16 10:26:41;;;;;;;9.00;2.45;;;14.40;99.90;;;;;;5041213;28;20037;-79
2021/05/16 10:29:08;;;;;;;11.32;2.40;;;14.60;99.90;;;;;;5052454;28;20036;-78
2021/05/16 10:31:53;;;;;;;7.60;2.13;;;14.90;99.90;;;;;;5052226;28;20029;-77
2021/05/16 10:34:31;;;;;;;7.35;1.67;;;14.90;99.90;;;;;;5050378;28;20053;-81
2021/05/16 10:37:03;;;;;;;6.00;1.23;;;14.90;99.90;;;;;;5052428;28;20044;-75
2021/05/16 10:39:38;;;;;;;6.55;1.85;;;15.20;99.90;;;;;;5051885;28;20020;-80
2021/05/16 10:42:14;;;;;;;5.68;1.30;;;15.00;92.00;;;;;;5069341;28;20048;-78
2021/05/16 10:45:07;;;;;;;7.10;1.65;;;14.70;95.10;;;;;;5061643;28;20052;-75
2021/05/16 10:47:43;;;;;;;4.05;1.10;;;14.70;94.50;;;;;;5060718;28;20049;-75
2021/05/16 10:50:13;;;;;;;3.40;0.60;;;14.80;93.90;;;;;;5065225;28;20025;-75
2021/05/16 10:52:39;;;;;;;4.75;1.25;;;14.80;90.40;;;;;;5065216;28;20374;-76
2021/05/16 10:55:23;;;;;;;4.47;0.80;;;15.10;91.20;;;;;;5052186;28;20367;-78
2021/05/16 10:57:50;;;;;;;7.00;1.33;;;15.20;90.50;;;;;;5069651;28;20047;-76
2021/05/16 11:00:31;;;;;;;4.68;1.25;;;15.70;90.50;;;;;;5052068;28;20048;-77
2021/05/16 11:03:08;;;;;;;5.25;1.40;;;16.00;87.60;;;;;;5052211;28;20040;-77
2021/05/16 11:05:40;;;;;;;4.28;1.27;;;16.00;88.10;;;;;;5051769;28;20040;-76
2021/05/16 11:08:30;;;;;;;3.42;0.90;;;16.20;84.00;;;;;;5052202;28;20033;-76
2021/05/16 11:10:59;;;;;;;7.50;1.63;;;16.50;83.40;;;;;;5043890;28;20041;-76
2021/05/16 11:13:31;;;;;;;3.88;1.17;;;16.50;79.40;;;;;;5050394;28;20493;-76
2021/05/16 11:16:06;;;;;;;3.97;1.60;;;16.50;76.60;;;;;;5052266;28;20386;-76
2021/05/16 11:18:34;;;;;;;2.67;0.80;;;16.80;76.10;;;;;;5051830;28;20331;-75
2021/05/16 11:21:06;;;;;;;3.42;1.40;;;16.70;74.90;;;;;;5051990;28;20033;-75
2021/05/16 11:23:34;;;;;;;5.25;1.00;;;17.10;73.10;;;;;;5051460;28;20395;-76
2021/05/16 11:26:05;;;;;;;3.80;1.15;;;17.30;69.90;;;;;;5051744;28;20481;-76
2021/05/16 11:28:37;;;;;;;5.13;1.25;;;17.30;70.50;;;;;;5051368;28;20394;-75
2021/05/16 11:31:10;;;;;;;5.85;1.38;;;17.30;70.30;;;;;;5052029;28;20512;-75
2021/05/16 11:33:39;;;;;;;3.38;1.10;;;17.60;69.40;;;;;;5062209;28;20473;-74
2021/05/16 11:36:10;;;;;;;5.43;1.20;;;18.00;67.00;;;;;;5058466;28;20052;-78
2021/05/16 11:38:42;;;;;;;5.35;1.40;;;17.40;64.30;;;;;;5069324;28;20047;-73
2021/05/16 11:41:25;;;;;;;4.22;1.05;;;17.60;64.80;;;;;;5057769;28;20040;-74
2021/05/16 11:43:52;;;;;;;3.40;0.88;;;17.80;64.40;;;;;;5065771;28;20049;-75
2021/05/16 11:46:40;;;;;;;5.00;0.88;;;17.90;65.80;;;;;;5051488;28;20040;-76
2021/05/16 11:49:08;;;;;;;3.05;1.00;;;18.10;64.40;;;;;;5061323;28;20033;-75
2021/05/16 11:51:34;;;;;;;4.88;1.05;;;18.50;64.10;;;;;;5065043;28;20028;-75
2021/05/16 11:54:06;;;;;;;5.55;2.00;;;18.20;63.60;;;;;;5052037;28;20052;-76
2021/05/16 11:56:42;;;;;;;13.00;1.55;;;17.90;64.80;;;;;;5063281;28;20055;-76
2021/05/16 11:59:09;;;;;;;3.22;1.45;;;18.00;64.50;;;;;;5059979;28;20092;-76
2021/05/16 12:01:37;;;;;;;4.53;1.23;;;17.70;64.50;;;;;;5064167;28;20020;-75
2021/05/16 12:04:16;;;;;;;5.97;1.38;;;18.00;63.50;;;;;;5071584;28;20053;-76
2021/05/16 12:06:43;;;;;;;5.38;1.45;;;17.80;63.20;;;;;;5073750;28;20405;-76
2021/05/16 12:09:16;;;;;;;5.53;1.25;;;17.80;64.30;;;;;;5071365;28;20037;-80
2021/05/16 12:11:47;;;;;;;5.28;1.20;;;18.20;62.10;;;;;;5068968;28;20482;-74
2021/05/16 12:14:31;;;;;;;5.22;1.10;;;18.60;62.70;;;;;;5065289;28;20047;-74
2021/05/16 12:16:59;;;;;;;6.32;1.10;;;18.50;62.40;;;;;;5066900;28;20466;-75
2021/05/16 12:19:26;;;;;;;4.82;1.60;;;18.20;60.80;;;;;;5055226;28;20351;-76
2021/05/16 12:22:00;;;;;;;8.02;1.98;;;18.30;59.40;;;;;;5066598;28;20028;-74
2021/05/16 12:24:29;;;;;;;2.67;0.95;;;18.50;59.20;;;;;;5059459;28;20465;-75
2021/05/16 12:26:57;;;;;;;7.15;1.75;;;18.00;58.60;;;;;;5069706;28;20334;-75
2021/05/16 12:29:24;;;;;;;9.55;2.95;;;17.70;59.40;;;;;;5073249;28;20033;-73
2021/05/16 12:31:50;;;;;;;5.75;1.27;;;17.60;59.90;;;;;;5067306;28;20382;-74
2021/05/16 12:34:21;;;;;;;8.40;1.73;;;17.40;60.60;;;;;;5055057;28;20049;-73
2021/05/16 12:37:05;;;;;;;4.18;1.15;;;17.60;59.40;;;;;;5054548;28;20029;-74
2021/05/16 12:39:44;;;;;;;5.00;0.90;;;17.90;59.00;;;;;;5054593;28;20056;-74
2021/05/16 12:42:37;;;;;;;2.40;0.80;;;18.10;59.70;;;;;;5061866;28;20362;-74
2021/05/16 12:45:31;;;;;;;7.85;2.20;;;18.20;59.60;;;;;;5071360;28;20067;-77
2021/05/16 12:48:07;;;;;;;8.32;3.03;;;18.10;59.00;;;;;;5072894;28;20025;-74
2021/05/16 12:50:47;;;;;;;7.07;2.33;;;18.00;62.60;;;;;;5072947;28;20042;-74
2021/05/16 12:53:24;;;;;;;9.88;1.90;;;18.00;63.30;;;;;;5068401;28;20052;-75
2021/05/16 12:55:56;;;;;;;3.80;0.95;;;18.20;62.30;;;;;;5061577;28;20048;-73
2021/05/16 12:58:31;;;;;;;5.20;1.55;;;17.80;60.10;;;;;;5062283;28;20036;-73